Time;durP1;ratioP1;P1;durP2;ratioP2;P2;SDS_P1;SDS_P2;PMS_P1;PMS_P2;Temp;Humidity;BMP_temperature;BMP_pressure;BME280_temperature;BME280_humidity;BME280_pressure;Samples;Min_cycle;Max_cycle;Signal;HPM_P1;HPM_P2
2021/09/06 00:01:03;;;;;;;43.58;19.85;;;;;;;6.03;66.79;101465.30;1694733;83;28060;-65
2021/09/06 00:03:29;;;;;;;36.58;19.42;;;;;;;6.00;66.54;101469.85;1699999;82;25708;-65
2021/09/06 00:05:57;;;;;;;36.08;19.37;;;;;;;5.98;66.80;101478.95;1701041;82;25866;-65
2021/09/06 00:08:25;;;;;;;37.80;19.55;;;;;;;5.94;66.59;101473.78;1657020;83;25960;-65
2021/09/06 00:11:10;;;;;;;39.20;18.12;;;;;;;5.90;66.65;101471.30;1655663;83;26559;-65
2021/09/06 00:13:40;;;;;;;36.77;18.23;;;;;;;5.90;66.56;101470.49;1644143;85;27385;-65
2021/09/06 00:16:06;;;;;;;;;;;;;;;5.87;66.49;101477.70;1653340;85;25958;-64
2021/09/06 00:18:33;;;;;;;37.08;18.98;;;;;;;5.88;67.01;101477.98;1653344;84;26539;-64
2021/09/06 00:21:06;;;;;;;37.13;18.95;;;;;;;5.84;66.78;101470.97;1704806;82;26526;-65
2021/09/06 00:23:29;;;;;;;46.37;20.82;;;;;;;5.83;66.83;101474.70;1699678;83;25800;-64
2021/09/06 00:25:56;;;;;;;43.08;20.62;;;;;;;5.81;67.11;101476.83;1700300;83;27424;-64
2021/09/06 00:28:22;;;;;;;41.10;20.65;;;;;;;5.76;66.79;101478.09;1702470;80;25800;-65
2021/09/06 00:30:48;;;;;;;39.42;19.87;;;;;;;5.75;67.01;101475.13;1685039;83;25794;-65
2021/09/06 00:33:14;;;;;;;44.42;19.87;;;;;;;5.72;66.76;101479.12;1682388;83;25915;-64
2021/09/06 00:35:40;;;;;;;37.88;19.30;;;;;;;5.72;66.89;101480.98;1656458;84;25879;-64
2021/09/06 00:38:07;;;;;;;34.92;16.90;;;;;;;5.70;66.97;101482.56;1644055;84;27346;-65
2021/09/06 00:40:34;;;;;;;35.23;17.65;;;;;;;5.69;67.39;101481.49;1648984;83;25783;-65
2021/09/06 00:43:00;;;;;;;42.17;19.27;;;;;;;5.66;66.98;101484.67;1697273;83;26403;-65
2021/09/06 00:45:27;;;;;;;32.83;19.00;;;;;;;5.63;67.44;101486.50;1698676;83;25901;-64
2021/09/06 00:47:53;;;;;;;35.63;17.77;;;;;;;5.61;67.06;101485.39;1693592;83;25822;-64
2021/09/06 00:50:20;;;;;;;40.55;19.42;;;;;;;5.57;67.25;101478.37;1700860;82;27268;-65
2021/09/06 00:52:48;;;;;;;33.42;17.62;;;;;;;5.53;67.43;101478.56;1696473;83;26593;-65
2021/09/06 00:55:17;;;;;;;36.15;17.70;;;;;;;5.47;67.27;101480.09;1698457;83;25879;-64
2021/09/06 00:57:44;;;;;;;32.60;17.35;;;;;;;5.43;67.26;101489.14;1698544;83;26477;-65
2021/09/06 01:00:13;;;;;;;30.55;16.67;;;;;;;5.41;67.03;101484.55;1699634;82;25890;-64
2021/09/06 01:02:40;;;;;;;33.78;17.80;;;;;;;5.38;67.17;101483.19;1693561;83;27351;-64
2021/09/06 01:05:08;;;;;;;31.23;17.25;;;;;;;5.37;67.37;101480.75;1697135;83;26183;-64
2021/09/06 01:07:35;;;;;;;30.85;16.02;;;;;;;5.34;67.06;101478.55;1699099;83;25871;-64
2021/09/06 01:10:08;;;;;;;30.65;17.30;;;;;;;5.32;67.27;101482.81;1697542;83;25902;-64
2021/09/06 01:12:36;;;;;;;29.50;16.15;;;;;;;5.28;67.14;101485.72;1702999;82;25750;-64
2021/09/06 01:15:05;;;;;;;30.40;17.77;;;;;;;5.26;67.43;101490.52;1706307;82;28442;-64
2021/09/06 01:17:32;;;;;;;30.95;16.42;;;;;;;5.22;67.34;101489.36;1686963;82;30296;-64
2021/09/06 01:19:59;;;;;;;32.63;16.27;;;;;;;5.19;66.99;101488.50;1696977;82;25764;-64
2021/09/06 01:22:25;;;;;;;34.83;16.25;;;;;;;5.14;66.92;101487.08;1649629;83;26542;-64
2021/09/06 01:24:52;;;;;;;32.67;17.52;;;;;;;5.12;67.03;101490.53;1646605;85;26509;-64
2021/09/06 01:27:18;;;;;;;30.37;16.30;;;;;;;5.09;66.84;101484.31;1650517;84;27370;-64
2021/09/06 01:29:46;;;;;;;31.68;15.63;;;;;;;5.04;66.90;101485.06;1694924;81;25788;-64
2021/09/06 01:32:12;;;;;;;30.02;15.32;;;;;;;4.99;66.78;101483.09;1702581;82;25820;-64
2021/09/06 01:34:39;;;;;;;30.05;16.70;;;;;;;4.94;66.92;101483.01;1706631;82;25952;-64
2021/09/06 01:37:06;;;;;;;29.70;16.07;;;;;;;4.89;67.08;101483.42;1699530;82;25839;-64
2021/09/06 01:39:32;;;;;;;26.93;14.53;;;;;;;4.85;67.01;101485.27;1700839;82;27373;-64
2021/09/06 01:41:59;;;;;;;27.02;14.58;;;;;;;4.81;67.12;101478.75;1708215;81;26592;-64
2021/09/06 01:44:26;;;;;;;27.93;14.90;;;;;;;4.79;67.10;101484.08;1703553;82;25932;-64
2021/09/06 01:46:52;;;;;;;29.72;15.35;;;;;;;4.75;67.15;101479.73;1704364;82;25729;-64
2021/09/06 01:49:18;;;;;;;25.05;15.05;;;;;;;4.73;67.26;101476.45;1701913;82;25504;-64
2021/09/06 01:51:45;;;;;;;25.65;14.28;;;;;;;4.71;67.20;101483.12;1699485;82;27332;-65
2021/09/06 01:54:11;;;;;;;21.05;13.43;;;;;;;4.67;67.25;101480.92;1702613;82;25863;-65
2021/09/06 01:56:38;;;;;;;25.52;13.68;;;;;;;4.64;67.21;101485.95;1704253;80;25862;-65
2021/09/06 01:59:05;;;;;;;25.45;13.90;;;;;;;4.62;67.48;101487.52;1703565;82;26500;-65
2021/09/06 02:01:31;;;;;;;22.85;14.30;;;;;;;4.58;67.43;101488.23;1704173;80;26040;-65
2021/09/06 02:03:57;;;;;;;22.95;12.35;;;;;;;4.56;67.91;101492.48;1684947;82;27300;-65
2021/09/06 02:06:24;;;;;;;34.92;16.62;;;;;;;4.51;68.19;101488.38;1651764;84;26667;-65
2021/09/06 02:08:50;;;;;;;44.38;17.90;;;;;;;4.50;68.39;101494.80;1645941;84;26161;-65
2021/09/06 02:11:16;;;;;;;37.70;17.45;;;;;;;4.48;68.33;101491.02;1699644;83;25815;-65
2021/09/06 02:13:43;;;;;;;33.20;16.37;;;;;;;4.48;68.37;101494.23;1711391;81;25795;-65
2021/09/06 02:16:09;;;;;;;29.18;15.25;;;;;;;4.46;68.25;101498.48;1654616;83;29454;-65
2021/09/06 02:18:36;;;;;;;27.02;15.72;;;;;;;4.44;68.04;101492.56;1646735;84;25936;-65
2021/09/06 02:21:02;;;;;;;27.82;15.83;;;;;;;4.40;68.18;101489.25;1650541;84;25984;-66
2021/09/06 02:23:28;;;;;;;24.80;13.98;;;;;;;4.37;68.07;101489.18;1644115;85;26041;-65
2021/09/06 02:25:55;;;;;;;23.92;14.60;;;;;;;4.35;68.04;101487.81;1654433;83;25746;-63
2021/09/06 02:28:21;;;;;;;27.98;14.28;;;;;;;4.33;67.91;101480.00;1652341;85;27378;-64
2021/09/06 02:30:48;;;;;;;25.68;14.10;;;;;;;4.32;68.05;101478.37;1646415;84;25998;-64
2021/09/06 02:33:14;;;;;;;26.90;15.13;;;;;;;4.28;68.07;101478.03;1686983;83;25710;-64
2021/09/06 02:35:40;;;;;;;25.05;14.23;;;;;;;4.25;68.34;101472.34;1698462;83;25935;-64
2021/09/06 02:38:07;;;;;;;27.15;15.25;;;;;;;4.21;68.19;101473.87;1690277;82;25958;-64
2021/09/06 02:40:33;;;;;;;25.50;14.07;;;;;;;4.19;68.34;101474.62;1686490;82;27363;-64
2021/09/06 02:42:59;;;;;;;26.05;15.00;;;;;;;4.14;68.54;101476.69;1660436;84;25744;-64
2021/09/06 02:45:26;;;;;;;24.85;15.10;;;;;;;4.10;68.57;101473.67;1652204;85;25924;-64
2021/09/06 02:47:52;;;;;;;24.52;14.30;;;;;;;4.09;68.52;101477.39;1650367;83;25971;-64
2021/09/06 02:50:18;;;;;;;22.70;13.50;;;;;;;4.07;68.39;101480.83;1658942;84;25898;-64
2021/09/06 02:52:45;;;;;;;26.33;15.23;;;;;;;4.07;68.37;101478.66;1652980;84;27340;-64
2021/09/06 02:55:11;;;;;;;25.32;15.13;;;;;;;4.06;68.50;101483.20;1649175;85;25923;-64
2021/09/06 02:57:37;;;;;;;26.42;14.47;;;;;;;4.06;68.60;101480.53;1649027;85;25880;-64
2021/09/06 03:00:06;;;;;;;24.07;14.07;;;;;;;4.06;68.77;101471.69;1649613;84;25850;-64
2021/09/06 03:02:32;;;;;;;28.57;14.70;;;;;;;4.06;68.67;101475.71;1658329;84;25750;-64
2021/09/06 03:04:58;;;;;;;31.57;15.40;;;;;;;4.04;68.67;101479.96;1702238;82;28119;-64
2021/09/06 03:07:24;;;;;;;25.00;14.40;;;;;;;4.04;69.15;101477.81;1685881;81;25823;-64
2021/09/06 03:09:51;;;;;;;29.02;16.25;;;;;;;4.03;69.10;101483.67;1702973;82;25793;-64
2021/09/06 03:12:17;;;;;;;26.02;14.58;;;;;;;4.04;69.31;101481.30;1704144;82;25721;-64
2021/09/06 03:14:43;;;;;;;27.60;15.40;;;;;;;4.05;69.25;101480.27;1705557;82;26178;-64
2021/09/06 03:17:10;;;;;;;32.17;16.50;;;;;;;4.06;69.46;101479.73;1714164;81;28062;-64
2021/09/06 03:19:36;;;;;;;50.78;20.82;;;;;;;4.04;69.59;101473.27;1704920;82;25829;-64
2021/09/06 03:22:04;;;;;;;41.88;17.95;;;;;;;4.04;69.55;101471.13;1706629;80;26010;-65
2021/09/06 03:24:30;;;;;;;29.20;16.32;;;;;;;4.04;69.46;101473.80;1703158;82;25825;-64
2021/09/06 03:26:57;;;;;;;30.57;17.90;;;;;;;4.04;69.29;101468.45;1707983;80;25913;-64
2021/09/06 03:29:23;;;;;;;30.55;16.07;;;;;;;4.03;69.20;101462.25;1711026;82;28100;-64
2021/09/06 03:31:49;;;;;;;33.80;15.43;;;;;;;4.04;69.27;101460.41;1703680;82;27181;-64
2021/09/06 03:34:16;;;;;;;44.10;19.98;;;;;;;4.01;69.30;101457.67;1702983;82;25943;-63
2021/09/06 03:36:42;;;;;;;33.00;17.17;;;;;;;4.02;69.48;101457.97;1703422;82;25792;-65
2021/09/06 03:39:08;;;;;;;40.48;18.20;;;;;;;4.01;69.65;101461.69;1702482;82;25768;-64
2021/09/06 03:41:35;;;;;;;28.95;17.17;;;;;;;3.99;69.68;101462.98;1703362;82;29499;-63
2021/09/06 03:44:01;;;;;;;32.65;18.30;;;;;;;3.97;69.87;101466.40;1701246;82;25948;-63
2021/09/06 03:46:30;;;;;;;35.00;18.12;;;;;;;3.94;69.69;101462.34;1688825;82;25929;-63
2021/09/06 03:48:57;;;;;;;31.52;17.25;;;;;;;3.92;69.91;101461.23;1649606;84;25680;-64
2021/09/06 03:51:23;;;;;;;32.23;18.23;;;;;;;3.90;69.90;101462.00;1654470;83;25903;-64
2021/09/06 03:53:49;;;;;;;32.25;17.85;;;;;;;3.90;69.96;101472.71;1658688;84;27327;-64
2021/09/06 03:56:16;;;;;;;29.40;17.62;;;;;;;3.89;70.02;101476.96;1653857;84;25843;-64
2021/09/06 03:58:42;;;;;;;30.10;16.67;;;;;;;3.88;70.13;101472.64;1652784;83;25649;-64
2021/09/06 04:01:09;;;;;;;33.83;17.40;;;;;;;3.88;70.33;101471.30;1658164;85;25893;-64
2021/09/06 04:03:35;;;;;;;31.20;16.93;;;;;;;3.87;70.30;101469.70;1654504;84;25892;-64
2021/09/06 04:06:02;;;;;;;34.10;17.30;;;;;;;3.87;70.38;101467.83;1647017;84;28053;-64
2021/09/06 04:08:28;;;;;;;35.48;17.77;;;;;;;3.89;70.45;101475.62;1654574;83;25804;-64
2021/09/06 04:10:56;;;;;;;38.33;18.57;;;;;;;3.91;70.48;101472.18;1654923;85;25859;-64
2021/09/06 04:13:22;;;;;;;36.20;19.07;;;;;;;3.93;70.59;101474.09;1648869;85;25934;-64
2021/09/06 04:15:48;;;;;;;33.10;18.50;;;;;;;3.95;70.59;101477.87;1655261;85;25871;-64
2021/09/06 04:18:16;;;;;;;38.53;19.35;;;;;;;3.96;70.64;101482.19;1659167;84;27410;-64
2021/09/06 04:20:43;;;;;;;32.95;18.55;;;;;;;3.98;70.83;101475.53;1669140;83;26441;-64
2021/09/06 04:23:10;;;;;;;39.33;19.37;;;;;;;4.00;71.05;101473.46;1650913;84;26486;-65
2021/09/06 04:25:37;;;;;;;32.10;17.07;;;;;;;4.02;71.09;101475.38;1657113;84;25803;-65
2021/09/06 04:28:04;;;;;;;34.50;17.40;;;;;;;4.05;70.93;101476.25;1661495;84;25851;-65
2021/09/06 04:30:31;;;;;;;30.90;16.17;;;;;;;4.06;70.82;101480.53;1652535;85;27043;-65
2021/09/06 04:32:57;;;;;;;31.15;17.00;;;;;;;4.08;70.88;101482.44;1653788;84;25858;-65
2021/09/06 04:35:24;;;;;;;29.77;17.00;;;;;;;4.10;70.93;101481.70;1656742;84;25659;-65
2021/09/06 04:37:50;;;;;;;27.55;15.43;;;;;;;4.13;70.95;101483.61;1653569;84;26034;-65
2021/09/06 04:40:16;;;;;;;30.95;16.70;;;;;;;4.14;70.98;101487.91;1662856;84;25821;-64
2021/09/06 04:42:43;;;;;;;26.68;15.72;;;;;;;4.16;71.31;101493.33;1703828;82;27291;-65
2021/09/06 04:45:10;;;;;;;28.60;16.75;;;;;;;4.19;71.30;101488.00;1708053;82;25878;-65
2021/09/06 04:47:37;;;;;;;30.70;17.25;;;;;;;4.21;71.20;101487.27;1716866;81;25832;-64
2021/09/06 04:50:05;;;;;;;29.35;15.65;;;;;;;4.24;71.23;101490.28;1702104;81;27088;-64
2021/09/06 04:52:31;;;;;;;27.40;15.85;;;;;;;4.28;71.26;101493.30;1705682;82;26466;-64
2021/09/06 04:54:57;;;;;;;26.17;15.25;;;;;;;4.30;71.14;101494.67;1715298;82;27312;-65
2021/09/06 04:57:23;;;;;;;28.77;15.98;;;;;;;4.32;71.11;101493.10;1708705;82;25989;-64
2021/09/06 04:59:50;;;;;;;27.95;15.70;;;;;;;4.36;71.20;101493.44;1708565;82;25920;-63
2021/09/06 05:02:17;;;;;;;30.57;17.23;;;;;;;4.38;71.28;101492.16;1703061;82;26245;-64
2021/09/06 05:04:43;;;;;;;27.27;15.35;;;;;;;4.41;71.32;101494.37;1708668;82;25869;-64
2021/09/06 05:07:09;;;;;;;29.25;16.52;;;;;;;4.44;71.47;101491.73;1708443;82;27393;-64
2021/09/06 05:09:36;;;;;;;22.00;14.33;;;;;;;4.47;71.40;101495.27;1718762;82;25870;-64
2021/09/06 05:12:03;;;;;;;29.42;16.85;;;;;;;4.52;71.66;101499.39;1709212;82;25856;-65
2021/09/06 05:14:29;;;;;;;30.08;16.05;;;;;;;4.57;71.76;101495.47;1710670;82;25909;-64
2021/09/06 05:16:56;;;;;;;27.50;16.48;;;;;;;4.65;71.91;101500.45;1717515;81;25936;-63
2021/09/06 05:19:22;;;;;;;26.10;13.98;;;;;;;4.72;71.97;101499.50;1712358;82;27323;-63
2021/09/06 05:21:48;;;;;;;25.30;14.55;;;;;;;4.79;72.13;101498.29;1718423;81;25711;-63
2021/09/06 05:24:14;;;;;;;23.05;13.35;;;;;;;4.88;72.37;101497.37;1706267;82;25873;-63
2021/09/06 05:26:41;;;;;;;23.55;14.23;;;;;;;4.96;72.42;101495.64;1705855;82;25976;-63
2021/09/06 05:29:07;;;;;;;26.33;14.25;;;;;;;5.07;72.84;101500.64;1713993;81;25756;-63
2021/09/06 05:31:34;;;;;;;26.05;15.08;;;;;;;5.19;72.90;101497.89;1711467;81;27335;-63
2021/09/06 05:34:00;;;;;;;23.45;14.65;;;;;;;5.32;73.08;101500.25;1667222;83;26176;-63
2021/09/06 05:36:26;;;;;;;29.07;14.68;;;;;;;5.47;73.47;101502.38;1653387;84;25806;-63
2021/09/06 05:38:53;;;;;;;26.33;14.20;;;;;;;5.64;73.72;101499.67;1660474;85;26310;-63
2021/09/06 05:41:20;;;;;;;22.02;14.45;;;;;;;5.80;73.74;101506.06;1662126;83;25968;-63
2021/09/06 05:43:48;;;;;;;26.20;15.40;;;;;;;5.99;73.87;101516.02;1692449;83;28063;-63
2021/09/06 05:46:15;;;;;;;26.52;14.45;;;;;;;6.19;74.49;101507.42;1690221;83;25827;-62
2021/09/06 05:48:41;;;;;;;27.65;14.55;;;;;;;6.42;74.96;101511.75;1687986;83;25768;-62
2021/09/06 05:51:08;;;;;;;22.90;14.07;;;;;;;6.65;75.23;101515.22;1685988;83;25852;-62
2021/09/06 05:53:34;;;;;;;22.87;13.55;;;;;;;6.91;74.93;101506.86;1682806;82;25965;-62
2021/09/06 05:56:01;;;;;;;26.42;15.05;;;;;;;7.15;75.21;101512.76;1684215;83;27382;-62
2021/09/06 05:58:27;;;;;;;23.25;14.33;;;;;;;7.40;75.60;101516.17;1752404;80;26298;-62
2021/09/06 06:00:53;;;;;;;24.50;13.48;;;;;;;7.68;75.54;101518.27;1739264;80;26076;-63
2021/09/06 06:03:20;;;;;;;23.77;12.13;;;;;;;7.94;75.50;101523.27;1755442;80;25852;-63
2021/09/06 06:05:46;;;;;;;23.77;12.50;;;;;;;8.23;75.37;101525.57;1744493;80;26389;-63
2021/09/06 06:08:12;;;;;;;19.87;11.57;;;;;;;8.53;75.15;101528.13;1711592;81;27300;-64
2021/09/06 06:10:38;;;;;;;19.70;10.80;;;;;;;8.81;75.06;101524.17;1708840;82;26370;-63
2021/09/06 06:13:04;;;;;;;22.52;11.25;;;;;;;9.12;74.85;101527.71;1711725;81;25896;-63
2021/09/06 06:15:31;;;;;;;19.25;10.68;;;;;;;9.43;74.57;101525.05;1713590;81;25875;-63
2021/09/06 06:17:57;;;;;;;17.17;10.05;;;;;;;9.72;74.10;101532.03;1677502;82;25887;-62
2021/09/06 06:20:24;;;;;;;18.62;10.58;;;;;;;10.03;72.84;101527.11;1702964;82;27323;-63
2021/09/06 06:22:50;;;;;;;12.25;7.75;;;;;;;10.34;72.92;101533.78;1707186;82;26205;-63
2021/09/06 06:25:16;;;;;;;11.10;7.20;;;;;;;10.66;72.32;101540.12;1709000;82;25834;-63
2021/09/06 06:27:43;;;;;;;9.98;6.80;;;;;;;10.99;72.15;101530.98;1715958;82;25657;-63
2021/09/06 06:30:11;;;;;;;11.12;6.92;;;;;;;11.30;71.42;101536.17;1709281;82;26018;-62
2021/09/06 06:32:37;;;;;;;15.32;6.53;;;;;;;11.59;70.78;101526.18;1706622;82;27297;-62
2021/09/06 06:35:05;;;;;;;18.45;11.43;;;;;;;11.98;70.28;101531.22;1717367;81;25862;-63
2021/09/06 06:37:31;;;;;;;15.58;7.12;;;;;;;12.34;69.88;101537.58;1703593;81;26595;-63
2021/09/06 06:39:58;;;;;;;11.90;7.42;;;;;;;12.71;68.83;101540.89;1698865;82;26169;-63
2021/09/06 06:42:24;;;;;;;10.05;6.20;;;;;;;13.06;68.08;101540.69;1677199;83;25884;-64
2021/09/06 06:44:51;;;;;;;14.03;7.30;;;;;;;13.39;67.57;101540.73;1676654;83;27308;-69
2021/09/06 06:47:17;;;;;;;14.83;6.83;;;;;;;13.66;66.61;101540.56;1682260;83;27259;-70
2021/09/06 06:49:43;;;;;;;11.95;7.03;;;;;;;13.92;66.16;101537.60;1690310;83;25858;-68
2021/09/06 06:52:10;;;;;;;12.53;6.65;;;;;;;14.22;65.50;101543.56;1683181;83;25915;-70
2021/09/06 06:54:36;;;;;;;11.38;7.17;;;;;;;14.55;64.67;101548.87;1683140;82;25743;-69
2021/09/06 06:57:03;;;;;;;13.58;7.47;;;;;;;14.80;63.81;101548.11;1679163;83;28025;-69
2021/09/06 06:59:29;;;;;;;11.57;6.45;;;;;;;15.07;63.53;101551.30;1696822;83;26564;-69
2021/09/06 07:01:55;;;;;;;15.32;6.42;;;;;;;15.37;62.97;101557.11;1680438;83;26554;-69
2021/09/06 07:04:22;;;;;;;11.05;5.87;;;;;;;15.66;62.53;101545.73;1688744;83;25715;-70
2021/09/06 07:06:48;;;;;;;9.98;6.08;;;;;;;15.98;61.91;101549.30;1688563;83;25826;-69
2021/09/06 07:09:15;;;;;;;13.22;6.08;;;;;;;16.35;61.05;101549.90;1690621;82;27310;-70
2021/09/06 07:11:41;;;;;;;12.00;5.90;;;;;;;16.66;60.40;101555.25;1726686;81;25805;-70
2021/09/06 07:14:08;;;;;;;16.35;6.20;;;;;;;16.94;59.29;101557.16;1720223;80;25863;-70
2021/09/06 07:16:34;;;;;;;13.45;5.33;;;;;;;17.23;58.60;101552.14;1688217;80;25924;-69
2021/09/06 07:19:01;;;;;;;9.00;5.80;;;;;;;17.53;58.14;101547.59;1739397;80;25971;-69
2021/09/06 07:21:27;;;;;;;10.48;5.40;;;;;;;17.85;57.27;101554.98;1736329;80;27297;-69
2021/09/06 07:23:54;;;;;;;11.20;5.05;;;;;;;18.06;56.18;101557.82;1734782;81;26951;-68
2021/09/06 07:26:20;;;;;;;9.85;4.53;;;;;;;18.31;54.77;101555.30;1735088;81;25783;-68
2021/09/06 07:28:47;;;;;;;8.20;4.60;;;;;;;18.41;53.58;101548.86;1735576;80;25862;-69
2021/09/06 07:31:14;;;;;;;10.08;4.78;;;;;;;18.60;52.36;101552.52;1737589;80;26317;-69
2021/09/06 07:33:40;;;;;;;7.62;4.45;;;;;;;18.80;51.93;101556.41;1708452;81;27382;-69
2021/09/06 07:36:07;;;;;;;9.33;5.45;;;;;;;19.08;51.80;101563.31;1705214;81;25954;-69
2021/09/06 07:38:33;;;;;;;6.90;4.15;;;;;;;19.36;51.47;101563.55;1714552;81;25875;-69
2021/09/06 07:41:00;;;;;;;8.33;4.17;;;;;;;19.63;50.98;101558.58;1714032;81;25793;-69
2021/09/06 07:43:27;;;;;;;8.03;4.25;;;;;;;19.95;50.22;101561.05;1705577;81;25864;-69
2021/09/06 07:45:53;;;;;;;10.58;3.87;;;;;;;20.22;49.88;101556.83;1704379;82;29527;-68
2021/09/06 07:48:20;;;;;;;10.38;3.80;;;;;;;20.52;48.12;101556.00;1702912;82;25841;-69
2021/09/06 07:50:48;;;;;;;13.22;5.35;;;;;;;20.78;46.87;101551.28;1705842;81;25659;-69
2021/09/06 07:53:15;;;;;;;7.22;4.22;;;;;;;20.99;46.86;101557.38;1708287;81;25928;-69
2021/09/06 07:55:43;;;;;;;7.72;3.87;;;;;;;21.35;46.02;101555.64;1701381;83;25811;-68
2021/09/06 07:58:10;;;;;;;7.40;3.92;;;;;;;21.63;46.03;101558.95;1689456;83;28483;-68
2021/09/06 08:00:37;;;;;;;6.97;3.15;;;;;;;21.77;44.84;101557.12;1697837;83;25980;-67
2021/09/06 08:03:03;;;;;;;6.17;2.60;;;;;;;22.05;44.34;101560.36;1708045;81;26456;-65
2021/09/06 08:05:32;;;;;;;5.65;2.67;;;;;;;22.16;43.79;101553.95;1698033;82;25742;-66
2021/09/06 08:07:59;;;;;;;5.60;3.10;;;;;;;22.45;43.25;101551.87;1702907;80;26396;-65
2021/09/06 08:13:16;;;;;;;4.78;2.10;;;;;;;22.86;41.55;101550.98;1655335;85;25731;-65
2021/09/06 08:15:43;;;;;;;5.00;2.08;;;;;;;23.01;40.63;101547.14;1660815;84;25842;-66
2021/09/06 08:18:10;;;;;;;5.65;2.27;;;;;;;23.16;40.22;101557.92;1662307;84;26601;-66
2021/09/06 08:20:39;;;;;;;8.20;5.90;;;;;;;23.34;38.82;101556.86;1659574;85;25714;-65
2021/09/06 08:23:06;;;;;;;1.98;1.67;;;;;;;23.50;38.63;101557.56;1673520;84;32857;-64
2021/09/06 08:25:32;;;;;;;2.90;1.80;;;;;;;23.82;38.18;101548.48;1661327;84;25897;-64
2021/09/06 08:27:59;;;;;;;6.25;2.42;;;;;;;24.14;37.42;101550.94;1655299;84;25708;-65
2021/09/06 08:30:25;;;;;;;2.40;2.12;;;;;;;24.48;37.18;101555.17;1649161;85;25745;-65
2021/09/06 08:32:52;;;;;;;1.90;1.37;;;;;;;24.68;35.99;101556.47;1650064;85;25787;-65
2021/09/06 08:38:00;;;;;;;8.45;3.00;;;;;;;24.84;35.84;101565.35;1697299;78;25789;-64
2021/09/06 08:40:27;;;;;;;3.95;2.67;;;;;;;25.19;35.27;101566.95;1699099;83;25694;-64
2021/09/06 08:42:54;;;;;;;4.90;3.20;;;;;;;25.37;34.30;101559.45;1669007;83;25839;-64
2021/09/06 08:45:20;;;;;;;4.80;3.30;;;;;;;25.48;34.96;101561.75;1696898;83;26540;-59
2021/09/06 08:47:47;;;;;;;7.65;3.35;;;;;;;25.61;33.87;101559.48;1704372;83;27773;-61
2021/09/06 08:50:14;;;;;;;4.05;2.00;;;;;;;25.74;34.25;101551.09;1691009;83;25707;-59
2021/09/06 08:52:41;;;;;;;7.87;4.80;;;;;;;25.81;33.78;101553.95;1693813;83;25969;-57
2021/09/06 08:55:09;;;;;;;5.70;1.90;;;;;;;25.79;33.34;101550.73;1673156;84;25981;-59
2021/09/06 08:57:36;;;;;;;2.92;1.40;;;;;;;25.84;33.38;101547.61;1694939;83;25704;-59
2021/09/06 09:00:05;;;;;;;6.37;4.40;;;;;;;25.84;32.60;101550.38;1695283;83;27371;-61
2021/09/06 09:02:34;;;;;;;4.65;2.05;;;;;;;25.86;33.11;101552.77;1671754;85;26153;-62
2021/09/06 09:05:07;;;;;;;2.37;1.40;;;;;;;26.04;32.55;101548.20;1675688;84;25976;-59
2021/09/06 09:07:35;;;;;;;1.00;0.70;;;;;;;26.12;31.68;101550.44;1672492;84;25932;-59
2021/09/06 09:10:05;;;;;;;1.47;1.05;;;;;;;26.05;30.28;101554.52;1674455;84;26545;-60
2021/09/06 09:12:32;;;;;;;2.87;1.20;;;;;;;25.78;30.62;101553.32;1660076;84;27480;-59
2021/09/06 09:15:01;;;;;;;4.25;2.58;;;;;;;25.78;31.48;101553.32;1663436;84;25842;-59
2021/09/06 09:17:28;;;;;;;2.27;1.10;;;;;;;25.94;31.46;101555.81;1672076;85;25810;-59
2021/09/06 09:20:00;;;;;;;1.77;1.32;;;;;;;26.11;30.47;101552.21;1674720;85;25686;-58
2021/09/06 09:22:36;;;;;;;2.65;1.10;;;;;;;26.24;30.42;101549.33;1642215;85;26265;-59
2021/09/06 09:25:09;;;;;;;4.03;1.30;;;;;;;26.32;30.32;101548.77;1668167;84;27516;-59
2021/09/06 09:27:39;;;;;;;25.97;24.37;;;;;;;26.50;29.60;101542.73;1668848;84;25901;-62
2021/09/06 09:30:25;;;;;;;0.95;0.75;;;;;;;26.33;28.67;101546.21;1666272;85;25780;-61
2021/09/06 09:33:12;;;;;;;54.90;51.80;;;;;;;26.23;28.05;101550.50;1673200;84;26026;-60
2021/09/06 09:35:40;;;;;;;2.50;1.05;;;;;;;26.00;28.71;101530.75;1673029;84;26618;-60
2021/09/06 09:38:10;;;;;;;1.70;0.90;;;;;;;26.12;28.58;101542.69;1667204;84;27318;-62
2021/09/06 09:40:41;;;;;;;2.65;1.30;;;;;;;25.99;28.41;101541.63;1688401;83;25671;-62
2021/09/06 09:43:10;;;;;;;1.45;0.98;;;;;;;25.92;28.37;101533.23;1697060;83;25825;-62
2021/09/06 09:45:37;;;;;;;2.40;0.93;;;;;;;26.09;28.36;101531.80;1700860;83;25833;-64
2021/09/06 09:48:06;;;;;;;1.57;1.07;;;;;;;26.30;28.23;101531.73;1695294;83;25662;-60
2021/09/06 09:50:35;;;;;;;0.90;0.78;;;;;;;26.43;28.43;101536.55;1694575;83;27927;-62
2021/09/06 09:53:03;;;;;;;4.83;0.90;;;;;;;26.54;28.39;101531.65;1697264;83;26542;-60
2021/09/06 09:55:34;;;;;;;3.15;1.00;;;;;;;26.58;28.10;101525.52;1693999;83;25796;-60
2021/09/06 09:58:02;;;;;;;2.62;1.12;;;;;;;26.62;27.63;101525.77;1700511;83;26095;-62
2021/09/06 10:00:28;;;;;;;2.35;1.20;;;;;;;26.70;27.78;101513.30;1694009;83;26009;-63
2021/09/06 10:03:01;;;;;;;2.72;1.30;;;;;;;26.92;27.94;101516.38;1695471;83;27894;-64
2021/09/06 10:05:34;;;;;;;1.77;0.90;;;;;;;27.00;27.68;101516.60;1695380;83;26325;-64
2021/09/06 10:08:05;;;;;;;1.77;1.05;;;;;;;27.10;27.33;101510.06;1694563;83;25734;-64
2021/09/06 10:10:38;;;;;;;2.05;1.10;;;;;;;27.12;26.95;101511.25;1695023;83;25921;-64
2021/09/06 10:13:10;;;;;;;1.75;0.95;;;;;;;26.97;26.91;101505.46;1698277;83;25747;-64
2021/09/06 10:15:38;;;;;;;60.95;57.80;;;;;;;26.77;26.78;101503.05;1693659;83;27374;-62
2021/09/06 10:18:19;;;;;;;3.17;1.00;;;;;;;26.73;27.23;101490.33;1701734;83;25753;-61
2021/09/06 10:20:48;;;;;;;1.27;0.90;;;;;;;27.04;27.06;101508.28;1698260;83;25864;-61
2021/09/06 10:23:15;;;;;;;2.08;1.32;;;;;;;27.42;27.19;101502.41;1690388;83;25770;-60
2021/09/06 10:25:44;;;;;;;1.52;0.85;;;;;;;27.49;26.15;101500.41;1688987;83;25681;-62
2021/09/06 10:28:13;;;;;;;1.40;1.05;;;;;;;27.42;26.38;101501.02;1699281;83;27901;-63
2021/09/06 10:30:43;;;;;;;1.32;0.93;;;;;;;27.33;25.99;101499.42;1687609;83;25726;-61
2021/09/06 10:33:30;;;;;;;2.47;0.90;;;;;;;27.10;26.19;101493.41;1699664;83;25853;-62
2021/09/06 10:36:19;;;;;;;2.87;1.20;;;;;;;27.02;26.24;101499.53;1703978;83;25844;-63
2021/09/06 10:38:53;;;;;;;4.97;1.00;;;;;;;26.99;27.30;101486.45;1699285;83;32991;-62
2021/09/06 10:41:23;;;;;;;1.17;1.05;;;;;;;26.98;26.05;101491.80;1631235;85;27303;-63
2021/09/06 10:43:59;;;;;;;1.45;0.93;;;;;;;26.86;26.31;101479.68;1703912;83;26557;-63
2021/09/06 10:46:29;;;;;;;4.78;1.05;;;;;;;27.06;26.55;101481.52;1684012;83;25812;-67
2021/09/06 10:49:01;;;;;;;2.37;1.00;;;;;;;27.25;26.23;101480.34;1678846;83;35118;-64
2021/09/06 10:51:34;;;;;;;4.00;0.93;;;;;;;27.24;26.22;101478.74;1690987;83;25727;-62
2021/09/06 10:54:06;;;;;;;2.45;1.00;;;;;;;27.43;26.28;101478.98;1684987;83;27338;-62
2021/09/06 10:56:33;;;;;;;3.55;1.20;;;;;;;27.64;26.13;101471.25;1697005;83;25691;-62
2021/09/06 10:59:01;;;;;;;1.20;0.90;;;;;;;27.88;25.66;101487.09;1691231;83;25799;-62
2021/09/06 11:01:30;;;;;;;1.98;1.10;;;;;;;27.82;25.48;101480.36;1695998;83;26554;-64
2021/09/06 11:03:57;;;;;;;2.25;1.00;;;;;;;28.01;25.54;101474.17;1701542;83;25791;-65
2021/09/06 11:06:28;;;;;;;3.85;1.12;;;;;;;28.22;25.48;101474.73;1692505;83;28125;-62
2021/09/06 11:08:55;;;;;;;1.82;1.00;;;;;;;28.39;25.46;101468.91;1699332;83;26145;-64
2021/09/06 11:11:30;;;;;;;1.85;0.98;;;;;;;28.74;25.45;101465.20;1691601;83;25715;-64
2021/09/06 11:13:57;;;;;;;1.60;0.98;;;;;;;28.61;24.58;101471.81;1692799;83;25836;-64
2021/09/06 11:16:34;;;;;;;1.37;1.07;;;;;;;28.53;24.71;101467.45;1689527;83;25918;-63
2021/09/06 11:19:12;;;;;;;1.87;1.10;;;;;;;28.56;25.03;101468.67;1692414;83;27386;-62
2021/09/06 11:21:38;;;;;;;3.00;1.27;;;;;;;28.65;25.15;101464.83;1704476;83;25642;-62
2021/09/06 11:24:05;;;;;;;2.35;1.02;;;;;;;28.91;24.82;101460.69;1696048;83;25943;-62
2021/09/06 11:26:33;;;;;;;3.22;1.20;;;;;;;28.97;24.77;101468.82;1700342;83;26252;-62